Terminal Aerodrome Forecast
Issued by NWS Quad Cities IA IL

Current Version | Previous Version | Text Only | Print | Product List | Glossary On
Versions: 1 2 3 4 5 6 7 8 9 10 11 12 13 14 15 16 17 18 19 20 21 22 23 24 25 26
000
FTUS43 KDVN 081349 AAA
TAFMLI
TAF AMD
KMLI 081349Z 0814/0912 30015G23KT P6SM VCSH SCT025
      TEMPO 0814/0818 BKN025
     FM090900 30012KT P6SM FEW025=

USA.gov is the U.S. government's official web portal to all federal, state and local government web resources and services.